Terminal Aerodrome Forecast
Issued by NWS

Home | Current Version | Previous Version | Text Only | Print | Product List | Glossary On
Versions: 1 2 3 4 5 6 7 8 9 10 11 12 13 14 15 16 17 18 19 20 21 22 23 24 25 26 27 28
000
FTUS44 KHGX 010527
TAFSGR
TAF
KSGR 010527Z 0106/0206 VRB02KT P6SM FEW012 BKN100
     FM011000 19003KT 4SM BR OVC015
     FM011500 16008KT P6SM SCT030 SCT250
     FM011900 15009KT P6SM VCSH BKN050
     FM020300 16006KT P6SM SCT100=

USA.gov is the U.S. government's official web portal to all federal, state and local government web resources and services.